sensor_id;sensor_type;location;lat;lon;timestamp;temperature;humidity
5675;DHT22;2860;54.284;10.158;2023-11-21T00:00:29;6.80;99.90
5675;DHT22;2860;54.284;10.158;2023-11-21T00:02:55;6.80;99.90
5675;DHT22;2860;54.284;10.158;2023-11-21T00:05:20;6.80;99.90
5675;DHT22;2860;54.284;10.158;2023-11-21T00:07:48;6.80;99.90
5675;DHT22;2860;54.284;10.158;2023-11-21T00:10:14;6.80;99.90
5675;DHT22;2860;54.284;10.158;2023-11-21T00:12:39;6.80;99.90
5675;DHT22;2860;54.284;10.158;2023-11-21T00:15:08;6.80;99.90
5675;DHT22;2860;54.284;10.158;2023-11-21T00:17:37;6.70;99.90
5675;DHT22;2860;54.284;10.158;2023-11-21T00:20:04;6.70;99.90
5675;DHT22;2860;54.284;10.158;2023-11-21T00:22:32;6.70;99.90
5675;DHT22;2860;54.284;10.158;2023-11-21T00:24:58;6.70;99.90
5675;DHT22;2860;54.284;10.158;2023-11-21T00:27:23;6.70;99.90
5675;DHT22;2860;54.284;10.158;2023-11-21T00:29:49;6.70;99.90
5675;DHT22;2860;54.284;10.158;2023-11-21T00:32:14;6.70;99.90
5675;DHT22;2860;54.284;10.158;2023-11-21T00:34:40;6.70;99.90
5675;DHT22;2860;54.284;10.158;2023-11-21T00:37:05;6.70;99.90
5675;DHT22;2860;54.284;10.158;2023-11-21T00:39:31;6.60;99.90
5675;DHT22;2860;54.284;10.158;2023-11-21T00:41:58;6.60;99.90
5675;DHT22;2860;54.284;10.158;2023-11-21T00:44:23;6.70;99.90
5675;DHT22;2860;54.284;10.158;2023-11-21T00:46:49;6.70;99.90
5675;DHT22;2860;54.284;10.158;2023-11-21T00:49:15;6.70;99.90
5675;DHT22;2860;54.284;10.158;2023-11-21T00:51:41;6.70;99.90
5675;DHT22;2860;54.284;10.158;2023-11-21T00:54:06;6.70;99.90
5675;DHT22;2860;54.284;10.158;2023-11-21T00:56:32;6.70;99.90
5675;DHT22;2860;54.284;10.158;2023-11-21T00:58:57;6.60;99.90
5675;DHT22;2860;54.284;10.158;2023-11-21T01:01:23;6.60;99.90
5675;DHT22;2860;54.284;10.158;2023-11-21T01:03:49;6.60;99.90
5675;DHT22;2860;54.284;10.158;2023-11-21T01:06:15;6.60;99.90
5675;DHT22;2860;54.284;10.158;2023-11-21T01:08:41;6.60;99.90
5675;DHT22;2860;54.284;10.158;2023-11-21T01:11:07;6.60;99.90
5675;DHT22;2860;54.284;10.158;2023-11-21T01:13:40;6.60;99.90
5675;DHT22;2860;54.284;10.158;2023-11-21T01:16:06;6.60;99.90
5675;DHT22;2860;54.284;10.158;2023-11-21T01:18:32;6.50;99.90
5675;DHT22;2860;54.284;10.158;2023-11-21T01:20:58;6.50;99.90
5675;DHT22;2860;54.284;10.158;2023-11-21T01:23:25;6.60;99.90
5675;DHT22;2860;54.284;10.158;2023-11-21T01:25:52;6.60;99.90
5675;DHT22;2860;54.284;10.158;2023-11-21T01:28:17;6.50;99.90
5675;DHT22;2860;54.284;10.158;2023-11-21T01:30:43;6.60;99.90
5675;DHT22;2860;54.284;10.158;2023-11-21T01:33:10;6.60;99.90
5675;DHT22;2860;54.284;10.158;2023-11-21T01:35:35;6.60;99.90
5675;DHT22;2860;54.284;10.158;2023-11-21T01:38:01;6.60;99.90
5675;DHT22;2860;54.284;10.158;2023-11-21T01:40:26;6.60;99.90
5675;DHT22;2860;54.284;10.158;2023-11-21T01:42:54;6.60;99.90
5675;DHT22;2860;54.284;10.158;2023-11-21T01:45:19;6.60;99.90
5675;DHT22;2860;54.284;10.158;2023-11-21T01:47:45;6.60;99.90
5675;DHT22;2860;54.284;10.158;2023-11-21T01:50:14;6.60;99.90
5675;DHT22;2860;54.284;10.158;2023-11-21T01:52:42;6.60;99.90
5675;DHT22;2860;54.284;10.158;2023-11-21T01:55:08;6.60;99.90
5675;DHT22;2860;54.284;10.158;2023-11-21T01:57:35;6.60;99.90
5675;DHT22;2860;54.284;10.158;2023-11-21T02:00:03;6.60;99.90
5675;DHT22;2860;54.284;10.158;2023-11-21T02:02:44;6.50;99.90
5675;DHT22;2860;54.284;10.158;2023-11-21T02:05:11;6.50;99.90
5675;DHT22;2860;54.284;10.158;2023-11-21T02:07:41;6.50;99.90
5675;DHT22;2860;54.284;10.158;2023-11-21T02:10:08;6.50;99.90
5675;DHT22;2860;54.284;10.158;2023-11-21T02:12:34;6.50;99.90
5675;DHT22;2860;54.284;10.158;2023-11-21T02:15:01;6.50;99.90
5675;DHT22;2860;54.284;10.158;2023-11-21T02:17:28;6.50;99.90
5675;DHT22;2860;54.284;10.158;2023-11-21T02:19:54;6.50;99.90
5675;DHT22;2860;54.284;10.158;2023-11-21T02:22:19;6.40;99.90
5675;DHT22;2860;54.284;10.158;2023-11-21T02:24:46;6.40;99.90
5675;DHT22;2860;54.284;10.158;2023-11-21T02:27:13;6.40;99.90
5675;DHT22;2860;54.284;10.158;2023-11-21T02:29:38;6.40;99.90
5675;DHT22;2860;54.284;10.158;2023-11-21T02:32:04;6.40;99.90
5675;DHT22;2860;54.284;10.158;2023-11-21T02:34:30;6.40;99.90
5675;DHT22;2860;54.284;10.158;2023-11-21T02:36:56;6.40;99.90
5675;DHT22;2860;54.284;10.158;2023-11-21T02:39:22;6.40;99.90
5675;DHT22;2860;54.284;10.158;2023-11-21T02:41:49;6.40;99.90
5675;DHT22;2860;54.284;10.158;2023-11-21T02:44:15;6.40;99.90
5675;DHT22;2860;54.284;10.158;2023-11-21T02:46:41;6.40;99.90
5675;DHT22;2860;54.284;10.158;2023-11-21T02:49:06;6.40;99.90
5675;DHT22;2860;54.284;10.158;2023-11-21T02:51:33;6.40;99.90
5675;DHT22;2860;54.284;10.158;2023-11-21T02:53:59;6.40;99.90
5675;DHT22;2860;54.284;10.158;2023-11-21T02:56:26;6.30;99.90
5675;DHT22;2860;54.284;10.158;2023-11-21T02:58:52;6.30;99.90
5675;DHT22;2860;54.284;10.158;2023-11-21T03:01:17;6.30;99.90
5675;DHT22;2860;54.284;10.158;2023-11-21T03:03:43;6.30;99.90
5675;DHT22;2860;54.284;10.158;2023-11-21T03:06:09;6.40;99.90
5675;DHT22;2860;54.284;10.158;2023-11-21T03:08:34;6.30;99.90
5675;DHT22;2860;54.284;10.158;2023-11-21T03:11:00;6.40;99.90
5675;DHT22;2860;54.284;10.158;2023-11-21T03:13:28;6.30;99.90
5675;DHT22;2860;54.284;10.158;2023-11-21T03:15:53;6.30;99.90
5675;DHT22;2860;54.284;10.158;2023-11-21T03:18:19;6.30;99.90
5675;DHT22;2860;54.284;10.158;2023-11-21T03:20:47;6.30;99.90
5675;DHT22;2860;54.284;10.158;2023-11-21T03:23:12;6.30;99.90
5675;DHT22;2860;54.284;10.158;2023-11-21T03:25:38;6.30;99.90
5675;DHT22;2860;54.284;10.158;2023-11-21T03:28:03;6.30;99.90
5675;DHT22;2860;54.284;10.158;2023-11-21T03:30:29;6.30;99.90
5675;DHT22;2860;54.284;10.158;2023-11-21T03:32:55;6.30;99.90
5675;DHT22;2860;54.284;10.158;2023-11-21T03:35:20;6.30;99.90
5675;DHT22;2860;54.284;10.158;2023-11-21T03:37:46;6.20;99.90
5675;DHT22;2860;54.284;10.158;2023-11-21T03:40:12;6.20;99.90
5675;DHT22;2860;54.284;10.158;2023-11-21T03:42:38;6.20;99.90
5675;DHT22;2860;54.284;10.158;2023-11-21T03:45:05;6.20;99.90
5675;DHT22;2860;54.284;10.158;2023-11-21T03:47:31;6.30;99.90
5675;DHT22;2860;54.284;10.158;2023-11-21T03:49:57;6.30;99.90
5675;DHT22;2860;54.284;10.158;2023-11-21T03:52:22;6.30;99.90
5675;DHT22;2860;54.284;10.158;2023-11-21T03:54:48;6.30;99.90
5675;DHT22;2860;54.284;10.158;2023-11-21T03:57:13;6.30;99.90
5675;DHT22;2860;54.284;10.158;2023-11-21T03:59:42;6.30;99.90
5675;DHT22;2860;54.284;10.158;2023-11-21T04:02:09;6.30;99.90
5675;DHT22;2860;54.284;10.158;2023-11-21T04:04:35;6.20;99.90
5675;DHT22;2860;54.284;10.158;2023-11-21T04:07:00;6.30;99.90
5675;DHT22;2860;54.284;10.158;2023-11-21T04:09:26;6.30;99.90
5675;DHT22;2860;54.284;10.158;2023-11-21T04:11:52;6.20;99.90
5675;DHT22;2860;54.284;10.158;2023-11-21T04:14:18;6.30;99.90
5675;DHT22;2860;54.284;10.158;2023-11-21T04:16:44;6.30;99.90
5675;DHT22;2860;54.284;10.158;2023-11-21T04:19:10;6.20;99.90
5675;DHT22;2860;54.284;10.158;2023-11-21T04:21:36;6.30;99.90
5675;DHT22;2860;54.284;10.158;2023-11-21T04:24:02;6.20;99.90
5675;DHT22;2860;54.284;10.158;2023-11-21T04:26:28;6.30;99.90
5675;DHT22;2860;54.284;10.158;2023-11-21T04:28:53;6.20;99.90
5675;DHT22;2860;54.284;10.158;2023-11-21T04:31:19;6.20;99.90
5675;DHT22;2860;54.284;10.158;2023-11-21T04:33:44;6.20;99.90
5675;DHT22;2860;54.284;10.158;2023-11-21T04:36:10;6.20;99.90
5675;DHT22;2860;54.284;10.158;2023-11-21T04:38:35;6.20;99.90
5675;DHT22;2860;54.284;10.158;2023-11-21T04:41:01;6.20;99.90
5675;DHT22;2860;54.284;10.158;2023-11-21T04:43:27;6.10;99.90
5675;DHT22;2860;54.284;10.158;2023-11-21T04:45:54;6.10;99.90
5675;DHT22;2860;54.284;10.158;2023-11-21T04:48:20;6.10;99.90
5675;DHT22;2860;54.284;10.158;2023-11-21T04:50:45;6.10;99.90
5675;DHT22;2860;54.284;10.158;2023-11-21T04:53:11;6.10;99.90
5675;DHT22;2860;54.284;10.158;2023-11-21T04:55:38;6.10;99.90
5675;DHT22;2860;54.284;10.158;2023-11-21T04:58:04;6.10;99.90
5675;DHT22;2860;54.284;10.158;2023-11-21T05:00:30;6.10;99.90
5675;DHT22;2860;54.284;10.158;2023-11-21T05:02:55;6.10;99.90
5675;DHT22;2860;54.284;10.158;2023-11-21T05:05:21;6.10;99.90
5675;DHT22;2860;54.284;10.158;2023-11-21T05:07:46;6.10;99.90
5675;DHT22;2860;54.284;10.158;2023-11-21T05:10:12;6.10;99.90
5675;DHT22;2860;54.284;10.158;2023-11-21T05:12:40;6.00;99.90
5675;DHT22;2860;54.284;10.158;2023-11-21T05:15:07;6.00;99.90
5675;DHT22;2860;54.284;10.158;2023-11-21T05:17:40;6.00;99.90
5675;DHT22;2860;54.284;10.158;2023-11-21T05:20:10;6.00;99.90
5675;DHT22;2860;54.284;10.158;2023-11-21T05:22:36;6.00;99.90
5675;DHT22;2860;54.284;10.158;2023-11-21T05:25:03;6.00;99.90
5675;DHT22;2860;54.284;10.158;2023-11-21T05:27:29;6.00;99.90
5675;DHT22;2860;54.284;10.158;2023-11-21T05:29:56;6.00;99.90
5675;DHT22;2860;54.284;10.158;2023-11-21T05:32:23;5.90;99.90
5675;DHT22;2860;54.284;10.158;2023-11-21T05:34:49;6.00;99.90
5675;DHT22;2860;54.284;10.158;2023-11-21T05:37:14;6.00;99.90
5675;DHT22;2860;54.284;10.158;2023-11-21T05:39:40;6.00;99.90
5675;DHT22;2860;54.284;10.158;2023-11-21T05:42:05;6.00;99.90
5675;DHT22;2860;54.284;10.158;2023-11-21T05:44:31;6.00;99.90
5675;DHT22;2860;54.284;10.158;2023-11-21T05:46:57;6.00;99.90
5675;DHT22;2860;54.284;10.158;2023-11-21T05:49:24;6.00;99.90
5675;DHT22;2860;54.284;10.158;2023-11-21T05:51:52;6.00;99.90
5675;DHT22;2860;54.284;10.158;2023-11-21T05:54:19;6.00;99.90
5675;DHT22;2860;54.284;10.158;2023-11-21T05:56:45;6.00;99.90
5675;DHT22;2860;54.284;10.158;2023-11-21T05:59:10;6.00;99.90
5675;DHT22;2860;54.284;10.158;2023-11-21T06:01:36;6.00;99.90
5675;DHT22;2860;54.284;10.158;2023-11-21T06:04:04;6.00;99.90
5675;DHT22;2860;54.284;10.158;2023-11-21T06:06:30;6.00;99.90
5675;DHT22;2860;54.284;10.158;2023-11-21T06:08:56;6.00;99.90
5675;DHT22;2860;54.284;10.158;2023-11-21T06:11:22;6.00;99.90
5675;DHT22;2860;54.284;10.158;2023-11-21T06:13:48;6.00;99.90
5675;DHT22;2860;54.284;10.158;2023-11-21T06:16:13;6.00;99.90
5675;DHT22;2860;54.284;10.158;2023-11-21T06:18:41;6.00;99.90
5675;DHT22;2860;54.284;10.158;2023-11-21T06:21:09;6.10;99.90
5675;DHT22;2860;54.284;10.158;2023-11-21T06:23:35;6.00;99.90
5675;DHT22;2860;54.284;10.158;2023-11-21T06:26:01;6.00;99.90
5675;DHT22;2860;54.284;10.158;2023-11-21T06:28:26;6.00;99.90
5675;DHT22;2860;54.284;10.158;2023-11-21T06:30:52;6.00;99.90
5675;DHT22;2860;54.284;10.158;2023-11-21T06:33:18;5.90;99.90
5675;DHT22;2860;54.284;10.158;2023-11-21T06:35:44;5.90;99.90
5675;DHT22;2860;54.284;10.158;2023-11-21T06:38:10;5.90;99.90
5675;DHT22;2860;54.284;10.158;2023-11-21T06:40:35;5.80;99.90
5675;DHT22;2860;54.284;10.158;2023-11-21T06:43:01;5.80;99.90
5675;DHT22;2860;54.284;10.158;2023-11-21T06:45:26;5.80;99.90
5675;DHT22;2860;54.284;10.158;2023-11-21T06:47:52;5.80;99.90
5675;DHT22;2860;54.284;10.158;2023-11-21T06:50:18;5.80;99.90
5675;DHT22;2860;54.284;10.158;2023-11-21T06:52:43;5.80;99.90
5675;DHT22;2860;54.284;10.158;2023-11-21T06:55:10;5.80;99.90
5675;DHT22;2860;54.284;10.158;2023-11-21T06:57:36;5.80;99.90
5675;DHT22;2860;54.284;10.158;2023-11-21T07:00:01;5.80;99.90
5675;DHT22;2860;54.284;10.158;2023-11-21T07:02:27;5.80;99.90
5675;DHT22;2860;54.284;10.158;2023-11-21T07:04:56;5.80;99.90
5675;DHT22;2860;54.284;10.158;2023-11-21T07:07:21;5.80;99.90
5675;DHT22;2860;54.284;10.158;2023-11-21T07:09:47;5.90;99.90
5675;DHT22;2860;54.284;10.158;2023-11-21T07:12:13;5.90;99.90
5675;DHT22;2860;54.284;10.158;2023-11-21T07:14:39;5.90;99.90
5675;DHT22;2860;54.284;10.158;2023-11-21T07:17:08;5.90;99.90
5675;DHT22;2860;54.284;10.158;2023-11-21T07:19:34;5.90;99.90
5675;DHT22;2860;54.284;10.158;2023-11-21T07:21:59;5.90;99.90
5675;DHT22;2860;54.284;10.158;2023-11-21T07:24:25;5.90;99.90
5675;DHT22;2860;54.284;10.158;2023-11-21T07:26:50;5.90;99.90
5675;DHT22;2860;54.284;10.158;2023-11-21T07:29:16;5.90;99.90
5675;DHT22;2860;54.284;10.158;2023-11-21T07:31:43;5.90;99.90
5675;DHT22;2860;54.284;10.158;2023-11-21T07:34:09;5.90;99.90
5675;DHT22;2860;54.284;10.158;2023-11-21T07:36:34;5.90;99.90
5675;DHT22;2860;54.284;10.158;2023-11-21T07:39:00;5.90;99.90
5675;DHT22;2860;54.284;10.158;2023-11-21T07:41:27;5.90;99.90
5675;DHT22;2860;54.284;10.158;2023-11-21T07:43:54;5.90;99.90
5675;DHT22;2860;54.284;10.158;2023-11-21T07:46:21;5.90;99.90
5675;DHT22;2860;54.284;10.158;2023-11-21T07:48:47;5.90;99.90
5675;DHT22;2860;54.284;10.158;2023-11-21T07:51:13;5.80;99.90
5675;DHT22;2860;54.284;10.158;2023-11-21T07:53:38;5.80;99.90
5675;DHT22;2860;54.284;10.158;2023-11-21T07:56:06;5.80;99.90
5675;DHT22;2860;54.284;10.158;2023-11-21T07:58:33;5.80;99.90
5675;DHT22;2860;54.284;10.158;2023-11-21T08:01:02;5.80;99.90
5675;DHT22;2860;54.284;10.158;2023-11-21T08:03:29;5.80;99.90
5675;DHT22;2860;54.284;10.158;2023-11-21T08:05:56;5.80;99.90
5675;DHT22;2860;54.284;10.158;2023-11-21T08:08:22;5.80;99.90
5675;DHT22;2860;54.284;10.158;2023-11-21T08:10:47;5.90;99.90
5675;DHT22;2860;54.284;10.158;2023-11-21T08:13:13;5.90;99.90
5675;DHT22;2860;54.284;10.158;2023-11-21T08:15:42;5.90;99.90
5675;DHT22;2860;54.284;10.158;2023-11-21T08:18:11;6.00;99.90
5675;DHT22;2860;54.284;10.158;2023-11-21T08:20:38;6.10;99.90
5675;DHT22;2860;54.284;10.158;2023-11-21T08:23:05;6.10;99.90
5675;DHT22;2860;54.284;10.158;2023-11-21T08:25:34;6.20;99.90
5675;DHT22;2860;54.284;10.158;2023-11-21T08:28:00;6.20;99.90
5675;DHT22;2860;54.284;10.158;2023-11-21T08:30:25;6.20;99.90
5675;DHT22;2860;54.284;10.158;2023-11-21T08:32:54;6.30;99.90
5675;DHT22;2860;54.284;10.158;2023-11-21T08:35:23;6.20;99.90
5675;DHT22;2860;54.284;10.158;2023-11-21T08:37:51;6.30;99.90
5675;DHT22;2860;54.284;10.158;2023-11-21T08:40:18;6.30;99.90
5675;DHT22;2860;54.284;10.158;2023-11-21T08:42:44;6.30;99.90
5675;DHT22;2860;54.284;10.158;2023-11-21T08:45:11;6.30;99.90
5675;DHT22;2860;54.284;10.158;2023-11-21T08:47:38;6.30;99.90
5675;DHT22;2860;54.284;10.158;2023-11-21T08:50:05;6.30;99.90
5675;DHT22;2860;54.284;10.158;2023-11-21T08:52:35;6.30;99.90
5675;DHT22;2860;54.284;10.158;2023-11-21T08:55:02;6.30;99.90
5675;DHT22;2860;54.284;10.158;2023-11-21T08:57:36;6.30;99.90
5675;DHT22;2860;54.284;10.158;2023-11-21T09:00:03;6.40;99.90
5675;DHT22;2860;54.284;10.158;2023-11-21T09:02:33;6.40;99.90
5675;DHT22;2860;54.284;10.158;2023-11-21T09:04:59;6.40;99.90
5675;DHT22;2860;54.284;10.158;2023-11-21T09:07:28;6.40;99.90
5675;DHT22;2860;54.284;10.158;2023-11-21T09:09:54;6.50;99.90
5675;DHT22;2860;54.284;10.158;2023-11-21T09:12:20;6.50;99.90
5675;DHT22;2860;54.284;10.158;2023-11-21T09:14:46;6.40;99.90
5675;DHT22;2860;54.284;10.158;2023-11-21T09:17:11;6.50;99.90
5675;DHT22;2860;54.284;10.158;2023-11-21T09:19:40;6.40;99.90
5675;DHT22;2860;54.284;10.158;2023-11-21T09:22:06;6.50;99.90
5675;DHT22;2860;54.284;10.158;2023-11-21T09:24:32;6.50;99.90
5675;DHT22;2860;54.284;10.158;2023-11-21T09:26:58;6.50;99.90
5675;DHT22;2860;54.284;10.158;2023-11-21T09:29:27;6.50;99.90
5675;DHT22;2860;54.284;10.158;2023-11-21T09:31:54;6.60;99.90
5675;DHT22;2860;54.284;10.158;2023-11-21T09:34:20;6.60;99.90
5675;DHT22;2860;54.284;10.158;2023-11-21T09:36:46;6.70;99.90
5675;DHT22;2860;54.284;10.158;2023-11-21T09:39:12;6.80;99.90
5675;DHT22;2860;54.284;10.158;2023-11-21T09:42:04;6.80;99.90
5675;DHT22;2860;54.284;10.158;2023-11-21T09:44:36;6.90;99.90
5675;DHT22;2860;54.284;10.158;2023-11-21T09:47:15;6.90;99.90
5675;DHT22;2860;54.284;10.158;2023-11-21T09:50:28;6.90;99.90
5675;DHT22;2860;54.284;10.158;2023-11-21T09:52:44;7.00;99.90
5675;DHT22;2860;54.284;10.158;2023-11-21T09:55:13;7.00;99.90
5675;DHT22;2860;54.284;10.158;2023-11-21T09:57:41;7.00;99.90
5675;DHT22;2860;54.284;10.158;2023-11-21T10:00:08;7.00;99.90
5675;DHT22;2860;54.284;10.158;2023-11-21T10:02:37;7.00;99.90
5675;DHT22;2860;54.284;10.158;2023-11-21T10:05:03;7.10;99.90
5675;DHT22;2860;54.284;10.158;2023-11-21T10:07:30;7.10;99.90
5675;DHT22;2860;54.284;10.158;2023-11-21T10:09:57;7.20;99.90
5675;DHT22;2860;54.284;10.158;2023-11-21T10:12:24;7.30;99.90
5675;DHT22;2860;54.284;10.158;2023-11-21T10:14:52;7.30;99.90
5675;DHT22;2860;54.284;10.158;2023-11-21T10:17:20;7.40;99.90
5675;DHT22;2860;54.284;10.158;2023-11-21T10:19:47;7.40;99.90
5675;DHT22;2860;54.284;10.158;2023-11-21T10:22:15;7.40;99.90
5675;DHT22;2860;54.284;10.158;2023-11-21T10:24:45;7.40;99.90
5675;DHT22;2860;54.284;10.158;2023-11-21T10:27:10;7.40;99.90
5675;DHT22;2860;54.284;10.158;2023-11-21T10:29:36;7.40;99.90
5675;DHT22;2860;54.284;10.158;2023-11-21T10:32:02;7.30;99.90
5675;DHT22;2860;54.284;10.158;2023-11-21T10:34:29;7.30;99.90
5675;DHT22;2860;54.284;10.158;2023-11-21T10:36:55;7.30;99.90
5675;DHT22;2860;54.284;10.158;2023-11-21T10:39:24;7.20;99.90
5675;DHT22;2860;54.284;10.158;2023-11-21T10:41:53;7.20;99.90
5675;DHT22;2860;54.284;10.158;2023-11-21T10:44:20;7.10;99.90
5675;DHT22;2860;54.284;10.158;2023-11-21T10:46:50;7.10;99.90
5675;DHT22;2860;54.284;10.158;2023-11-21T10:49:17;7.00;99.90
5675;DHT22;2860;54.284;10.158;2023-11-21T10:51:44;6.90;99.90
5675;DHT22;2860;54.284;10.158;2023-11-21T10:54:09;6.80;99.90
5675;DHT22;2860;54.284;10.158;2023-11-21T10:56:36;6.70;99.90
5675;DHT22;2860;54.284;10.158;2023-11-21T10:59:08;6.70;99.90
5675;DHT22;2860;54.284;10.158;2023-11-21T11:01:35;6.50;99.90
5675;DHT22;2860;54.284;10.158;2023-11-21T11:04:02;6.40;99.90
5675;DHT22;2860;54.284;10.158;2023-11-21T11:06:30;6.30;99.90
5675;DHT22;2860;54.284;10.158;2023-11-21T11:08:59;6.30;99.90
5675;DHT22;2860;54.284;10.158;2023-11-21T11:11:25;6.30;99.90
5675;DHT22;2860;54.284;10.158;2023-11-21T11:13:51;6.30;99.90
5675;DHT22;2860;54.284;10.158;2023-11-21T11:16:18;6.30;99.90
5675;DHT22;2860;54.284;10.158;2023-11-21T11:18:44;6.20;99.90
5675;DHT22;2860;54.284;10.158;2023-11-21T11:21:24;6.20;99.90
5675;DHT22;2860;54.284;10.158;2023-11-21T11:24:17;6.10;99.90
5675;DHT22;2860;54.284;10.158;2023-11-21T11:26:53;6.10;99.90
5675;DHT22;2860;54.284;10.158;2023-11-21T11:29:49;6.00;99.90
5675;DHT22;2860;54.284;10.158;2023-11-21T11:35:34;6.00;99.90
5675;DHT22;2860;54.284;10.158;2023-11-21T11:38:03;6.00;99.90
5675;DHT22;2860;54.284;10.158;2023-11-21T11:40:45;6.00;99.90
5675;DHT22;2860;54.284;10.158;2023-11-21T11:43:11;6.00;99.90
5675;DHT22;2860;54.284;10.158;2023-11-21T11:45:37;5.90;99.90
5675;DHT22;2860;54.284;10.158;2023-11-21T11:48:07;5.90;99.90
5675;DHT22;2860;54.284;10.158;2023-11-21T11:50:33;5.90;99.90
5675;DHT22;2860;54.284;10.158;2023-11-21T11:53:13;5.90;99.90
5675;DHT22;2860;54.284;10.158;2023-11-21T11:55:39;5.90;99.90
5675;DHT22;2860;54.284;10.158;2023-11-21T11:58:06;5.90;99.90
5675;DHT22;2860;54.284;10.158;2023-11-21T12:02:59;5.90;99.90
5675;DHT22;2860;54.284;10.158;2023-11-21T12:05:28;5.90;99.90
5675;DHT22;2860;54.284;10.158;2023-11-21T12:07:57;5.90;99.90
5675;DHT22;2860;54.284;10.158;2023-11-21T12:10:27;5.90;99.90
5675;DHT22;2860;54.284;10.158;2023-11-21T12:12:57;6.00;99.90
5675;DHT22;2860;54.284;10.158;2023-11-21T12:15:24;6.00;99.90
5675;DHT22;2860;54.284;10.158;2023-11-21T12:17:51;6.00;99.90
5675;DHT22;2860;54.284;10.158;2023-11-21T12:20:21;6.00;99.90
5675;DHT22;2860;54.284;10.158;2023-11-21T12:22:47;6.00;99.90
5675;DHT22;2860;54.284;10.158;2023-11-21T12:25:23;6.00;99.90
5675;DHT22;2860;54.284;10.158;2023-11-21T12:27:51;6.10;99.90
5675;DHT22;2860;54.284;10.158;2023-11-21T12:30:19;6.00;99.90
5675;DHT22;2860;54.284;10.158;2023-11-21T12:32:48;6.00;99.90
5675;DHT22;2860;54.284;10.158;2023-11-21T12:35:14;6.00;99.90
5675;DHT22;2860;54.284;10.158;2023-11-21T12:37:41;6.00;99.90
5675;DHT22;2860;54.284;10.158;2023-11-21T12:40:11;6.00;99.90
5675;DHT22;2860;54.284;10.158;2023-11-21T12:42:41;6.00;99.90
5675;DHT22;2860;54.284;10.158;2023-11-21T12:47:43;5.90;99.90
5675;DHT22;2860;54.284;10.158;2023-11-21T12:50:09;5.90;99.90
5675;DHT22;2860;54.284;10.158;2023-11-21T12:52:44;5.80;99.90
5675;DHT22;2860;54.284;10.158;2023-11-21T12:55:19;5.90;99.90
5675;DHT22;2860;54.284;10.158;2023-11-21T12:57:49;5.90;99.90
5675;DHT22;2860;54.284;10.158;2023-11-21T13:00:20;5.90;99.90
5675;DHT22;2860;54.284;10.158;2023-11-21T13:02:56;5.90;99.90
5675;DHT22;2860;54.284;10.158;2023-11-21T13:05:31;5.90;99.90
5675;DHT22;2860;54.284;10.158;2023-11-21T13:07:59;5.90;99.90
5675;DHT22;2860;54.284;10.158;2023-11-21T13:10:26;5.90;99.90
5675;DHT22;2860;54.284;10.158;2023-11-21T13:12:59;5.90;99.90
5675;DHT22;2860;54.284;10.158;2023-11-21T13:15:28;5.90;99.90
5675;DHT22;2860;54.284;10.158;2023-11-21T13:17:57;5.90;99.90
5675;DHT22;2860;54.284;10.158;2023-11-21T13:20:23;5.90;99.90
5675;DHT22;2860;54.284;10.158;2023-11-21T13:22:54;5.90;99.90
5675;DHT22;2860;54.284;10.158;2023-11-21T13:25:21;5.90;99.90
5675;DHT22;2860;54.284;10.158;2023-11-21T13:27:47;5.90;99.90
5675;DHT22;2860;54.284;10.158;2023-11-21T13:30:14;5.90;99.90
5675;DHT22;2860;54.284;10.158;2023-11-21T13:32:45;5.90;99.90
5675;DHT22;2860;54.284;10.158;2023-11-21T13:35:12;5.90;99.90
5675;DHT22;2860;54.284;10.158;2023-11-21T13:37:48;5.90;99.90
5675;DHT22;2860;54.284;10.158;2023-11-21T13:40:15;5.90;99.90
5675;DHT22;2860;54.284;10.158;2023-11-21T13:42:45;5.80;99.90
5675;DHT22;2860;54.284;10.158;2023-11-21T13:45:11;5.80;99.90
5675;DHT22;2860;54.284;10.158;2023-11-21T13:47:38;5.70;99.90
5675;DHT22;2860;54.284;10.158;2023-11-21T13:50:04;5.60;99.90
5675;DHT22;2860;54.284;10.158;2023-11-21T13:52:39;5.50;99.90
5675;DHT22;2860;54.284;10.158;2023-11-21T13:55:05;5.50;99.90
5675;DHT22;2860;54.284;10.158;2023-11-21T13:57:36;5.50;99.90
5675;DHT22;2860;54.284;10.158;2023-11-21T14:00:03;5.50;99.90
5675;DHT22;2860;54.284;10.158;2023-11-21T14:02:36;5.40;99.90
5675;DHT22;2860;54.284;10.158;2023-11-21T14:05:07;5.40;99.90
5675;DHT22;2860;54.284;10.158;2023-11-21T14:07:35;5.40;99.90
5675;DHT22;2860;54.284;10.158;2023-11-21T14:10:03;5.40;99.90
5675;DHT22;2860;54.284;10.158;2023-11-21T14:12:30;5.30;99.90
5675;DHT22;2860;54.284;10.158;2023-11-21T14:14:59;5.40;99.90
5675;DHT22;2860;54.284;10.158;2023-11-21T14:17:25;5.30;99.90
5675;DHT22;2860;54.284;10.158;2023-11-21T14:19:50;5.30;99.90
5675;DHT22;2860;54.284;10.158;2023-11-21T14:22:16;5.30;99.90
5675;DHT22;2860;54.284;10.158;2023-11-21T14:24:42;5.20;99.90
5675;DHT22;2860;54.284;10.158;2023-11-21T14:27:12;5.20;99.90
5675;DHT22;2860;54.284;10.158;2023-11-21T14:29:37;5.20;99.90
5675;DHT22;2860;54.284;10.158;2023-11-21T14:32:07;5.10;99.90
5675;DHT22;2860;54.284;10.158;2023-11-21T14:34:33;5.10;99.90
5675;DHT22;2860;54.284;10.158;2023-11-21T14:36:58;5.00;99.90
5675;DHT22;2860;54.284;10.158;2023-11-21T14:39:24;4.90;99.90
5675;DHT22;2860;54.284;10.158;2023-11-21T14:41:53;4.90;99.90
5675;DHT22;2860;54.284;10.158;2023-11-21T14:44:21;4.90;99.90
5675;DHT22;2860;54.284;10.158;2023-11-21T14:46:49;4.80;99.90
5675;DHT22;2860;54.284;10.158;2023-11-21T14:49:16;4.90;99.90
5675;DHT22;2860;54.284;10.158;2023-11-21T14:51:48;4.90;99.90
5675;DHT22;2860;54.284;10.158;2023-11-21T14:54:30;4.90;99.90
5675;DHT22;2860;54.284;10.158;2023-11-21T14:57:12;4.90;99.90
5675;DHT22;2860;54.284;10.158;2023-11-21T14:59:47;4.90;99.90
5675;DHT22;2860;54.284;10.158;2023-11-21T15:02:19;4.90;99.90
5675;DHT22;2860;54.284;10.158;2023-11-21T15:05:08;4.90;99.90
5675;DHT22;2860;54.284;10.158;2023-11-21T15:07:39;4.90;99.90
5675;DHT22;2860;54.284;10.158;2023-11-21T15:10:05;4.90;99.90
5675;DHT22;2860;54.284;10.158;2023-11-21T15:12:36;4.90;99.90
5675;DHT22;2860;54.284;10.158;2023-11-21T15:15:03;4.80;99.90
5675;DHT22;2860;54.284;10.158;2023-11-21T15:17:29;4.80;99.90
5675;DHT22;2860;54.284;10.158;2023-11-21T15:19:57;4.80;99.90
5675;DHT22;2860;54.284;10.158;2023-11-21T15:22:23;4.70;99.90
5675;DHT22;2860;54.284;10.158;2023-11-21T15:24:49;4.60;99.90
5675;DHT22;2860;54.284;10.158;2023-11-21T15:27:16;4.50;99.90
5675;DHT22;2860;54.284;10.158;2023-11-21T15:29:42;4.40;99.90
5675;DHT22;2860;54.284;10.158;2023-11-21T15:32:08;4.40;99.90
5675;DHT22;2860;54.284;10.158;2023-11-21T15:34:35;4.30;99.90
5675;DHT22;2860;54.284;10.158;2023-11-21T15:37:01;4.30;99.90
5675;DHT22;2860;54.284;10.158;2023-11-21T15:39:28;4.30;99.90
5675;DHT22;2860;54.284;10.158;2023-11-21T15:41:56;4.20;99.90
5675;DHT22;2860;54.284;10.158;2023-11-21T15:44:22;4.10;99.90
5675;DHT22;2860;54.284;10.158;2023-11-21T15:46:48;4.00;99.90
5675;DHT22;2860;54.284;10.158;2023-11-21T15:49:13;4.00;99.90
5675;DHT22;2860;54.284;10.158;2023-11-21T15:51:45;3.90;99.90
5675;DHT22;2860;54.284;10.158;2023-11-21T15:54:12;3.90;99.90
5675;DHT22;2860;54.284;10.158;2023-11-21T15:56:38;3.80;99.90
5675;DHT22;2860;54.284;10.158;2023-11-21T15:59:04;3.80;99.90
5675;DHT22;2860;54.284;10.158;2023-11-21T16:01:30;3.70;99.90
5675;DHT22;2860;54.284;10.158;2023-11-21T16:03:57;3.70;99.90
5675;DHT22;2860;54.284;10.158;2023-11-21T16:06:25;3.70;99.90
5675;DHT22;2860;54.284;10.158;2023-11-21T16:08:52;3.60;99.90
5675;DHT22;2860;54.284;10.158;2023-11-21T16:11:18;3.60;99.90